KAUH

Aurora Municipal - Al Potter Field Airport

Aurora, Nebraska, USA
METAR KAUH 092135Z AUTO 30004KT 10SM CLR 01/M05 A3029 RMK AO2 T00131055
Observed Flight Rules
Dec-9 @ 21:35 UTC (20 minutes ago) Visual Flight Rules
Wind Visibility Clouds
300° at 4 knots 10 miles
  • Clear skies
Temperatures Readings
Current 1°C / 34°F
Dewpoint -6°C / 21°F
Humidity 60%
Altimeter 30.29" Hg
Pressure 1026 hPa
Elevation 550
METAR KAUH 092135Z AUTO 30004KT 10SM CLR 01/M05 A3029 RMK AO2 T00131055
Observed Flight Rules
Dec-9 @ 21:35 UTC
(20 minutes ago)
VFR
Wind Visibility
300° at 4 knots 10 miles
Clouds
  • Clear skies
Temperature Dewpoint
1°C / 34°F -6°C / 21°F
Humidity Altimeter Pressure
60% 30.29" Hg 1026 hPa